Time;durP1;ratioP1;P1;durP2;ratioP2;P2;SDS_P1;SDS_P2;PMS_P1;PMS_P2;Temp;Humidity;BMP_temperature;BMP_pressure;BME280_temperature;BME280_humidity;BME280_pressure;Samples;Min_cycle;Max_cycle;Signal;HPM_P1;HPM_P2
2021/12/02 00:01:37;;;;;;;1.43;0.70;;;6.70;99.90;;;;;;5003183;28;20231;-66
2021/12/02 00:04:04;;;;;;;1.23;0.70;;;6.60;99.90;;;;;;5001291;28;20221;-66
2021/12/02 00:06:31;;;;;;;0.67;0.63;;;6.60;99.90;;;;;;5003197;28;20203;-66
2021/12/02 00:08:58;;;;;;;2.10;0.60;;;6.60;99.90;;;;;;5000181;28;20192;-66
2021/12/02 00:11:25;;;;;;;2.47;0.70;;;6.60;99.90;;;;;;5012002;28;20208;-67
2021/12/02 00:16:37;;;;;;;1.53;0.60;;;6.50;99.90;;;;;;4998559;28;20547;-66
2021/12/02 00:21:53;;;;;;;1.63;0.60;;;6.50;99.90;;;;;;4999778;28;20236;-66
2021/12/02 00:24:23;;;;;;;0.90;0.70;;;6.50;99.90;;;;;;4998751;28;20205;-66
2021/12/02 00:26:52;;;;;;;1.97;0.50;;;6.60;99.90;;;;;;5000717;28;20208;-66
2021/12/02 00:29:21;;;;;;;1.33;0.80;;;6.60;99.90;;;;;;4999617;28;20198;-65
2021/12/02 00:31:50;;;;;;;0.87;0.67;;;6.60;99.90;;;;;;4998656;28;20905;-66
2021/12/02 00:34:19;;;;;;;0.70;0.70;;;6.60;99.90;;;;;;5000334;28;20300;-66
2021/12/02 00:36:46;;;;;;;0.73;0.67;;;6.60;99.90;;;;;;5000643;28;20527;-66
2021/12/02 00:39:16;;;;;;;0.73;0.53;;;6.70;99.90;;;;;;5011159;28;20218;-66
2021/12/02 00:41:43;;;;;;;0.80;0.80;;;6.80;99.90;;;;;;5002428;28;20225;-66
2021/12/02 00:44:11;;;;;;;0.60;0.60;;;6.70;99.90;;;;;;5003885;28;20212;-71
2021/12/02 00:46:38;;;;;;;0.93;0.90;;;6.80;99.90;;;;;;4992526;28;20202;-66
2021/12/02 00:49:11;;;;;;;2.13;0.87;;;6.80;99.90;;;;;;5001500;28;20196;-66
2021/12/02 00:51:39;;;;;;;0.80;0.73;;;6.80;99.90;;;;;;5003573;28;20217;-66
2021/12/02 00:54:08;;;;;;;1.20;0.97;;;6.80;99.90;;;;;;5008666;28;20234;-66
2021/12/02 00:56:36;;;;;;;1.60;0.90;;;6.70;99.90;;;;;;5003173;28;20200;-66
2021/12/02 00:59:06;;;;;;;0.90;0.60;;;6.70;99.90;;;;;;5002362;28;20204;-66
2021/12/02 01:01:35;;;;;;;1.00;0.90;;;6.70;99.90;;;;;;5004829;28;20229;-66
2021/12/02 01:04:09;;;;;;;0.93;0.80;;;6.60;99.90;;;;;;5001166;28;20257;-66
2021/12/02 01:06:36;;;;;;;2.20;0.80;;;6.60;99.90;;;;;;5000657;28;20519;-66
2021/12/02 01:09:04;;;;;;;1.23;0.80;;;6.60;99.90;;;;;;5001416;28;20213;-66
2021/12/02 01:11:32;;;;;;;1.90;0.80;;;6.50;99.90;;;;;;4999136;28;20202;-66
2021/12/02 01:13:59;;;;;;;1.50;0.83;;;6.50;99.90;;;;;;5001731;28;20223;-66
2021/12/02 01:16:27;;;;;;;1.20;0.80;;;6.50;99.90;;;;;;5002151;28;20212;-66
2021/12/02 01:18:54;;;;;;;1.10;0.80;;;6.50;99.90;;;;;;5007587;28;20203;-66
2021/12/02 01:21:25;;;;;;;0.70;0.70;;;6.50;99.90;;;;;;5002421;28;20237;-67
2021/12/02 01:23:57;;;;;;;1.40;1.00;;;6.50;99.90;;;;;;5001020;28;20463;-66
2021/12/02 01:26:27;;;;;;;1.57;1.20;;;6.60;99.90;;;;;;5000854;28;20196;-66
2021/12/02 01:28:55;;;;;;;1.23;0.90;;;6.60;99.90;;;;;;5016865;28;20385;-66
2021/12/02 01:31:22;;;;;;;2.37;1.20;;;6.60;99.90;;;;;;5002518;28;20205;-66
2021/12/02 01:33:50;;;;;;;1.27;1.00;;;6.60;99.90;;;;;;5002057;28;20224;-66
2021/12/02 01:36:19;;;;;;;2.60;1.13;;;6.70;99.90;;;;;;5000556;28;20193;-66
2021/12/02 01:39:14;;;;;;;1.37;0.93;;;6.60;99.90;;;;;;5002579;28;20205;-66
2021/12/02 01:41:47;;;;;;;1.63;1.00;;;6.60;99.90;;;;;;5002612;28;20223;-66
2021/12/02 01:44:16;;;;;;;1.27;1.00;;;6.70;99.90;;;;;;5002215;28;20772;-66
2021/12/02 01:46:44;;;;;;;2.67;0.80;;;6.60;99.90;;;;;;4999756;28;20668;-66
2021/12/02 01:49:12;;;;;;;2.83;1.10;;;6.70;99.90;;;;;;5001125;28;20204;-66
2021/12/02 01:55:06;;;;;;;2.93;0.87;;;6.70;99.90;;;;;;5002420;28;20210;-67
2021/12/02 01:57:36;;;;;;;1.13;0.97;;;6.70;99.90;;;;;;4999862;28;20209;-66
2021/12/02 02:00:19;;;;;;;1.37;0.73;;;6.60;99.90;;;;;;5001490;28;20194;-66
2021/12/02 02:02:47;;;;;;;0.97;0.77;;;6.60;99.90;;;;;;5001323;28;20225;-66
2021/12/02 02:05:16;;;;;;;2.40;1.10;;;6.60;99.90;;;;;;5000503;28;20197;-66
2021/12/02 02:08:01;;;;;;;1.90;0.70;;;6.60;99.90;;;;;;5000707;28;20197;-66
2021/12/02 02:10:30;;;;;;;1.03;0.60;;;6.70;99.90;;;;;;5001324;28;20206;-66
2021/12/02 02:12:59;;;;;;;2.83;0.80;;;6.70;99.90;;;;;;5001414;28;20224;-67
2021/12/02 02:15:27;;;;;;;0.60;0.60;;;6.50;99.90;;;;;;5000132;28;20214;-67
2021/12/02 02:18:01;;;;;;;4.17;0.70;;;6.60;99.90;;;;;;5004294;28;20211;-66
2021/12/02 02:20:41;;;;;;;2.67;0.80;;;6.60;99.90;;;;;;5016478;28;20203;-67
2021/12/02 02:23:12;;;;;;;0.93;0.70;;;6.60;99.90;;;;;;5004989;28;20619;-66
2021/12/02 02:25:42;;;;;;;2.23;0.90;;;6.60;99.90;;;;;;5005976;28;20194;-66
2021/12/02 02:28:09;;;;;;;4.00;0.77;;;6.60;99.90;;;;;;4998555;28;20583;-66
2021/12/02 02:30:35;;;;;;;2.53;0.90;;;6.60;99.90;;;;;;5002007;28;20490;-66
2021/12/02 02:33:02;;;;;;;1.60;0.67;;;6.70;99.90;;;;;;5001872;28;20216;-66
2021/12/02 02:35:29;;;;;;;7.33;0.97;;;6.60;99.90;;;;;;4999811;28;20196;-66
2021/12/02 02:37:56;;;;;;;1.57;1.00;;;6.60;99.90;;;;;;5001937;28;20200;-66
2021/12/02 02:40:24;;;;;;;1.97;0.70;;;6.60;99.90;;;;;;5004070;28;20714;-66
2021/12/02 02:42:57;;;;;;;4.53;0.70;;;6.50;99.90;;;;;;5004591;28;20711;-66
2021/12/02 02:45:24;;;;;;;1.07;0.73;;;6.50;99.90;;;;;;5000966;28;20229;-67
2021/12/02 02:47:52;;;;;;;2.53;0.80;;;6.50;99.90;;;;;;4996456;28;20202;-66
2021/12/02 02:50:19;;;;;;;2.53;0.70;;;6.40;99.90;;;;;;5001185;28;20196;-66
2021/12/02 02:52:49;;;;;;;2.03;0.80;;;6.30;99.90;;;;;;5000768;28;20224;-66
2021/12/02 02:55:22;;;;;;;1.33;0.73;;;6.20;99.90;;;;;;4998030;28;20668;-66
2021/12/02 02:58:14;;;;;;;1.90;0.73;;;6.10;99.90;;;;;;5004605;28;20469;-66
2021/12/02 03:01:01;;;;;;;4.37;0.93;;;6.20;99.90;;;;;;5000058;28;20204;-66
2021/12/02 03:06:26;;;;;;;2.37;0.80;;;6.00;99.90;;;;;;4999650;28;20203;-66
2021/12/02 03:08:57;;;;;;;2.70;0.87;;;5.90;99.90;;;;;;5001042;28;20337;-66
2021/12/02 03:11:27;;;;;;;6.20;0.80;;;6.00;99.90;;;;;;4999331;28;20204;-66
2021/12/02 03:13:55;;;;;;;3.50;0.70;;;5.90;99.90;;;;;;5000244;28;20250;-66
2021/12/02 03:19:07;;;;;;;2.00;0.60;;;5.90;99.90;;;;;;4999751;28;20612;-66
2021/12/02 03:21:34;;;;;;;2.90;0.80;;;5.80;99.90;;;;;;5000936;28;20219;-66
2021/12/02 03:24:01;;;;;;;2.63;0.83;;;5.80;99.90;;;;;;5000529;28;20228;-66
2021/12/02 03:26:29;;;;;;;5.37;0.87;;;5.90;99.90;;;;;;4998886;28;20247;-66
2021/12/02 03:28:56;;;;;;;1.73;0.60;;;5.90;99.90;;;;;;4999649;28;20287;-66
2021/12/02 03:31:23;;;;;;;1.47;0.40;;;5.90;99.90;;;;;;5000502;28;20196;-67
2021/12/02 03:33:50;;;;;;;2.17;0.87;;;5.80;99.90;;;;;;5001291;28;20223;-66
2021/12/02 03:36:18;;;;;;;1.33;0.70;;;5.80;99.90;;;;;;4999868;28;20211;-66
2021/12/02 03:38:45;;;;;;;0.67;0.57;;;5.80;99.90;;;;;;5000353;28;20210;-66
2021/12/02 03:41:13;;;;;;;0.97;0.50;;;5.80;99.90;;;;;;5001432;28;20657;-66
2021/12/02 03:43:42;;;;;;;1.07;0.50;;;5.80;99.90;;;;;;5013181;28;20220;-66
2021/12/02 03:46:11;;;;;;;1.97;0.60;;;5.70;99.90;;;;;;5032760;28;20215;-66
2021/12/02 03:48:38;;;;;;;1.87;0.70;;;5.70;99.90;;;;;;5003723;28;20208;-66
2021/12/02 03:51:06;;;;;;;2.33;0.50;;;5.70;99.90;;;;;;5002653;28;20192;-66
2021/12/02 03:53:33;;;;;;;1.57;0.90;;;5.60;99.90;;;;;;4998692;28;20227;-66
2021/12/02 03:56:01;;;;;;;0.77;0.60;;;5.60;99.90;;;;;;5001631;28;20611;-65
2021/12/02 03:58:28;;;;;;;2.57;0.70;;;5.60;99.90;;;;;;5000233;28;20555;-66
2021/12/02 04:00:55;;;;;;;3.80;0.70;;;5.50;99.90;;;;;;4999680;28;20211;-66
2021/12/02 04:03:22;;;;;;;1.53;0.60;;;5.50;99.90;;;;;;4999541;28;20223;-66
2021/12/02 04:05:50;;;;;;;1.83;0.63;;;5.40;99.90;;;;;;5000535;28;20204;-65
2021/12/02 04:08:17;;;;;;;3.07;0.77;;;5.40;99.90;;;;;;5001396;28;20920;-66
2021/12/02 04:10:45;;;;;;;1.40;0.70;;;5.30;99.90;;;;;;4999467;28;20204;-66
2021/12/02 04:15:45;;;;;;;2.30;0.60;;;5.40;99.90;;;;;;5003900;28;20256;-66
2021/12/02 04:18:12;;;;;;;6.33;0.60;;;5.40;99.90;;;;;;5002321;28;20209;-66
2021/12/02 04:20:38;;;;;;;1.93;0.93;;;5.40;99.90;;;;;;5003288;28;20675;-66
2021/12/02 04:23:05;;;;;;;1.30;0.60;;;5.40;99.90;;;;;;5003584;28;20631;-66
2021/12/02 04:25:32;;;;;;;1.60;0.60;;;5.50;99.90;;;;;;5004101;28;20200;-66
2021/12/02 04:27:59;;;;;;;3.67;0.80;;;5.50;99.90;;;;;;5007509;28;20254;-66
2021/12/02 04:30:27;;;;;;;1.20;0.70;;;5.60;99.90;;;;;;5002663;28;20196;-66
2021/12/02 04:32:54;;;;;;;1.77;0.50;;;5.60;99.90;;;;;;5004000;28;20222;-66
2021/12/02 04:35:21;;;;;;;1.47;0.60;;;5.50;99.90;;;;;;5004621;28;20197;-66
2021/12/02 04:37:51;;;;;;;2.63;0.70;;;5.50;99.90;;;;;;5006403;28;20196;-66
2021/12/02 04:40:20;;;;;;;4.13;0.67;;;5.50;99.90;;;;;;5012969;28;20204;-66
2021/12/02 04:42:49;;;;;;;2.50;0.60;;;5.50;99.90;;;;;;5012129;28;20228;-66
2021/12/02 04:45:16;;;;;;;4.10;0.80;;;5.40;99.90;;;;;;5012107;28;20192;-66
2021/12/02 04:47:42;;;;;;;3.33;0.70;;;5.60;99.90;;;;;;5011952;28;20188;-66
2021/12/02 04:50:10;;;;;;;2.33;0.60;;;5.60;99.90;;;;;;5011806;28;20216;-66
2021/12/02 04:52:37;;;;;;;1.60;0.50;;;5.80;99.90;;;;;;5005284;28;20754;-66
2021/12/02 04:55:08;;;;;;;0.77;0.50;;;5.70;99.90;;;;;;5002657;28;20219;-66
2021/12/02 04:57:34;;;;;;;1.43;0.60;;;5.60;99.90;;;;;;5003273;28;20661;-65
2021/12/02 05:00:03;;;;;;;0.70;0.70;;;5.60;99.90;;;;;;5003338;28;20827;-66
2021/12/02 05:02:30;;;;;;;2.03;0.63;;;5.60;99.90;;;;;;5002220;28;20221;-67
2021/12/02 05:04:57;;;;;;;1.87;0.70;;;5.60;99.90;;;;;;5002279;28;20199;-67
2021/12/02 05:07:24;;;;;;;1.00;0.70;;;5.60;99.90;;;;;;5002229;28;20215;-67
2021/12/02 05:09:50;;;;;;;2.03;0.60;;;5.60;99.90;;;;;;5003218;28;20193;-66
2021/12/02 05:12:17;;;;;;;0.80;0.70;;;5.60;99.90;;;;;;5004236;28;20228;-66
2021/12/02 05:14:44;;;;;;;1.53;0.73;;;5.60;99.90;;;;;;5002337;28;20468;-66
2021/12/02 05:17:11;;;;;;;3.67;0.70;;;5.60;99.90;;;;;;5003750;28;20196;-66
2021/12/02 05:19:37;;;;;;;1.70;0.80;;;5.50;99.90;;;;;;5002161;28;20585;-66
2021/12/02 05:22:04;;;;;;;1.53;0.80;;;5.50;99.90;;;;;;5003404;28;20220;-66
2021/12/02 05:24:31;;;;;;;1.93;0.70;;;5.50;99.90;;;;;;5008380;28;20704;-66
2021/12/02 05:26:57;;;;;;;1.63;0.73;;;5.30;99.90;;;;;;5002297;28;20574;-66
2021/12/02 05:29:24;;;;;;;2.47;1.00;;;5.30;99.90;;;;;;5002270;28;20577;-67
2021/12/02 05:31:51;;;;;;;0.80;0.80;;;5.30;99.90;;;;;;5002905;28;20737;-66
2021/12/02 05:34:19;;;;;;;1.77;0.67;;;5.30;99.90;;;;;;5003522;28;20593;-65
2021/12/02 05:36:45;;;;;;;2.00;1.17;;;5.30;99.90;;;;;;5009362;28;20240;-65
2021/12/02 05:39:12;;;;;;;1.37;0.70;;;5.50;99.90;;;;;;5010841;28;20199;-66
2021/12/02 05:41:39;;;;;;;4.10;0.93;;;5.40;99.90;;;;;;5008678;28;20290;-65
2021/12/02 05:44:06;;;;;;;3.30;0.73;;;5.40;99.90;;;;;;5010899;28;20223;-65
2021/12/02 05:46:33;;;;;;;2.27;1.00;;;5.40;99.90;;;;;;5010431;28;20196;-65
2021/12/02 05:49:00;;;;;;;1.30;0.97;;;5.40;99.90;;;;;;5011188;28;20188;-66
2021/12/02 05:51:26;;;;;;;1.97;0.90;;;5.40;99.90;;;;;;5011446;28;20576;-66
2021/12/02 05:53:53;;;;;;;1.20;0.63;;;5.50;99.90;;;;;;5010362;28;20724;-66
2021/12/02 05:56:20;;;;;;;1.33;0.93;;;5.40;99.90;;;;;;5006339;28;20658;-66
2021/12/02 05:58:47;;;;;;;3.50;0.80;;;5.40;99.90;;;;;;5010618;28;20200;-66
2021/12/02 06:01:13;;;;;;;5.07;1.00;;;5.40;99.90;;;;;;5011422;28;20196;-66
2021/12/02 06:03:40;;;;;;;2.80;1.00;;;5.40;99.90;;;;;;5006642;28;20220;-66
2021/12/02 06:06:07;;;;;;;2.33;0.80;;;5.40;99.90;;;;;;5020038;28;20187;-66
2021/12/02 06:08:36;;;;;;;2.00;0.60;;;5.50;99.90;;;;;;5031357;28;20194;-66
2021/12/02 06:11:05;;;;;;;2.10;0.80;;;5.50;99.90;;;;;;5010916;28;20211;-66
2021/12/02 06:13:31;;;;;;;1.70;0.70;;;5.30;99.90;;;;;;5010028;28;20228;-66
2021/12/02 06:15:58;;;;;;;0.97;0.80;;;5.30;99.90;;;;;;5003960;28;20204;-66
2021/12/02 06:18:25;;;;;;;3.20;0.90;;;5.40;99.90;;;;;;5011934;28;20201;-66
2021/12/02 06:20:54;;;;;;;2.57;1.00;;;5.30;99.90;;;;;;4998651;28;20202;-66
2021/12/02 06:23:22;;;;;;;1.20;0.80;;;5.30;99.90;;;;;;5013615;28;20302;-65
2021/12/02 06:25:49;;;;;;;2.17;0.73;;;5.30;99.90;;;;;;5005677;28;20279;-66
2021/12/02 06:28:17;;;;;;;1.77;0.77;;;5.30;99.90;;;;;;5009354;28;20199;-64
2021/12/02 06:30:45;;;;;;;1.87;0.70;;;5.40;99.90;;;;;;5009360;28;20192;-64
2021/12/02 06:33:12;;;;;;;1.63;0.70;;;5.40;99.90;;;;;;5008561;28;20219;-64
2021/12/02 06:35:40;;;;;;;2.83;0.93;;;5.40;99.90;;;;;;5007449;28;20196;-64
2021/12/02 06:38:08;;;;;;;1.90;0.87;;;5.40;99.90;;;;;;5011504;28;20275;-66
2021/12/02 06:40:35;;;;;;;3.37;0.80;;;5.40;99.90;;;;;;5010636;28;20206;-65
2021/12/02 06:43:02;;;;;;;1.60;0.80;;;5.40;99.90;;;;;;5005690;28;20338;-65
2021/12/02 06:45:29;;;;;;;3.90;1.07;;;5.40;99.90;;;;;;5006489;28;20201;-65
2021/12/02 06:47:59;;;;;;;1.97;0.90;;;5.30;99.90;;;;;;5013419;28;20195;-65
2021/12/02 06:50:28;;;;;;;3.00;1.03;;;5.40;99.90;;;;;;5008013;28;20193;-65
2021/12/02 06:52:55;;;;;;;1.17;0.77;;;5.50;99.90;;;;;;5003748;28;20221;-66
2021/12/02 06:55:21;;;;;;;1.07;0.70;;;5.40;99.90;;;;;;5004221;28;20211;-66
2021/12/02 06:57:48;;;;;;;2.80;0.83;;;5.30;99.90;;;;;;5005668;28;20206;-66
2021/12/02 07:00:17;;;;;;;3.57;1.00;;;5.40;99.90;;;;;;5009959;28;20209;-66
2021/12/02 07:02:44;;;;;;;1.53;0.80;;;5.40;99.90;;;;;;5008874;28;20591;-66
2021/12/02 07:05:15;;;;;;;1.73;0.70;;;5.50;99.90;;;;;;5007126;28;20203;-66
2021/12/02 07:07:42;;;;;;;1.33;0.90;;;5.40;99.90;;;;;;5012637;28;20194;-66
2021/12/02 07:10:23;;;;;;;2.13;0.90;;;5.40;99.90;;;;;;5008879;28;20202;-68
2021/12/02 07:12:57;;;;;;;0.90;0.80;;;5.30;99.90;;;;;;5006624;28;20225;-68
2021/12/02 07:15:28;;;;;;;1.30;0.90;;;5.30;99.90;;;;;;4994736;28;20333;-66
2021/12/02 07:17:57;;;;;;;2.03;0.80;;;5.40;99.90;;;;;;4992312;28;20203;-66
2021/12/02 07:20:27;;;;;;;3.33;0.90;;;5.40;99.90;;;;;;5008658;28;20227;-66
2021/12/02 07:22:54;;;;;;;1.57;0.90;;;5.40;99.90;;;;;;5009556;28;20278;-66
2021/12/02 07:25:21;;;;;;;2.30;0.80;;;5.40;99.90;;;;;;5009707;28;20683;-65
2021/12/02 07:27:47;;;;;;;4.90;1.00;;;5.40;99.90;;;;;;5010132;28;20214;-65
2021/12/02 07:30:15;;;;;;;4.33;1.10;;;5.30;99.90;;;;;;5003583;28;20219;-65
2021/12/02 07:32:45;;;;;;;2.33;1.50;;;5.40;99.90;;;;;;5007948;28;20713;-65
2021/12/02 07:35:14;;;;;;;2.80;1.10;;;5.40;99.90;;;;;;5016525;28;20208;-65
2021/12/02 07:37:51;;;;;;;1.80;0.90;;;5.30;99.90;;;;;;5006895;28;20209;-65
2021/12/02 07:40:20;;;;;;;1.17;0.90;;;5.30;99.90;;;;;;5016418;28;20211;-66
2021/12/02 07:42:48;;;;;;;0.73;0.73;;;5.30;99.90;;;;;;4998593;28;20400;-65
2021/12/02 07:45:15;;;;;;;1.17;1.07;;;5.30;99.90;;;;;;5007122;28;20211;-63
2021/12/02 07:47:42;;;;;;;2.00;0.70;;;5.30;99.90;;;;;;5006230;28;20208;-63
2021/12/02 07:50:11;;;;;;;1.33;0.90;;;5.30;99.90;;;;;;5014127;28;20228;-63
2021/12/02 07:52:51;;;;;;;1.30;0.87;;;5.30;99.90;;;;;;5011107;28;20250;-67
2021/12/02 07:55:20;;;;;;;2.43;0.83;;;5.40;99.90;;;;;;5011217;28;20214;-65
2021/12/02 07:57:47;;;;;;;3.27;1.10;;;5.40;99.90;;;;;;5009356;28;20204;-65
2021/12/02 08:00:23;;;;;;;2.60;1.23;;;5.50;99.90;;;;;;5006395;28;20271;-65
2021/12/02 08:02:52;;;;;;;1.97;1.00;;;5.40;99.90;;;;;;5016438;28;20227;-64
2021/12/02 08:05:22;;;;;;;3.00;1.10;;;5.50;99.90;;;;;;5007954;28;20200;-66
2021/12/02 08:07:49;;;;;;;1.73;1.03;;;5.60;99.90;;;;;;5009944;28;20201;-67
2021/12/02 08:10:17;;;;;;;2.50;1.33;;;5.70;99.90;;;;;;5012356;28;20214;-64
2021/12/02 08:12:47;;;;;;;1.43;1.17;;;5.70;99.90;;;;;;5008794;28;20227;-66
2021/12/02 08:15:17;;;;;;;3.53;1.03;;;5.70;99.90;;;;;;5012896;28;20218;-66
2021/12/02 08:17:44;;;;;;;1.17;1.00;;;5.70;99.90;;;;;;5011255;28;20195;-64
2021/12/02 08:20:12;;;;;;;1.63;1.07;;;5.70;99.90;;;;;;5008267;28;20215;-66
2021/12/02 08:22:38;;;;;;;1.53;0.90;;;5.80;99.90;;;;;;5010520;28;20226;-64
2021/12/02 08:25:06;;;;;;;1.53;1.27;;;5.80;99.90;;;;;;5007015;28;20220;-66
2021/12/02 08:27:33;;;;;;;1.37;0.90;;;5.90;99.90;;;;;;5005564;28;20208;-64
2021/12/02 08:30:02;;;;;;;2.50;0.90;;;5.80;99.90;;;;;;5002398;28;20203;-66
2021/12/02 08:32:30;;;;;;;1.93;1.00;;;6.00;99.90;;;;;;5005086;28;20341;-63
2021/12/02 08:34:59;;;;;;;2.40;1.00;;;5.90;99.90;;;;;;5010889;28;20205;-63
2021/12/02 08:37:29;;;;;;;3.90;1.23;;;6.00;99.90;;;;;;5007920;28;20200;-64
2021/12/02 08:39:59;;;;;;;1.43;1.10;;;6.00;99.90;;;;;;5006649;28;20224;-65
2021/12/02 08:42:28;;;;;;;1.77;1.10;;;6.00;99.90;;;;;;5001491;28;20228;-63
2021/12/02 08:44:54;;;;;;;1.50;0.90;;;6.10;99.90;;;;;;5002258;28;20219;-66
2021/12/02 08:47:23;;;;;;;1.20;0.90;;;6.10;99.90;;;;;;5010884;28;20203;-66
2021/12/02 08:49:54;;;;;;;1.50;1.10;;;6.20;99.90;;;;;;5004872;28;20287;-66
2021/12/02 08:52:23;;;;;;;2.17;0.90;;;6.30;99.90;;;;;;5016257;28;20239;-65
2021/12/02 08:54:50;;;;;;;1.80;1.20;;;6.30;99.90;;;;;;5008457;28;20205;-63
2021/12/02 08:57:31;;;;;;;0.97;0.87;;;6.40;99.90;;;;;;5007460;28;20196;-65
2021/12/02 08:59:58;;;;;;;1.50;1.00;;;6.40;99.90;;;;;;5003382;28;20204;-63
2021/12/02 09:02:24;;;;;;;3.43;1.20;;;6.40;99.90;;;;;;4999961;28;20224;-66
2021/12/02 09:04:52;;;;;;;2.93;1.00;;;6.50;99.90;;;;;;5009005;28;20326;-66
2021/12/02 09:07:19;;;;;;;1.53;1.00;;;6.50;99.90;;;;;;5014778;28;20199;-64
2021/12/02 09:09:46;;;;;;;1.80;1.00;;;6.50;99.90;;;;;;5008262;28;20595;-63
2021/12/02 09:12:13;;;;;;;1.03;0.93;;;6.60;99.90;;;;;;5010456;28;20607;-64
2021/12/02 09:14:40;;;;;;;2.93;1.10;;;6.70;99.90;;;;;;5002957;28;20211;-64
2021/12/02 09:17:06;;;;;;;5.97;0.93;;;6.70;99.90;;;;;;5006275;28;20204;-64
2021/12/02 09:19:33;;;;;;;4.03;1.27;;;6.70;99.90;;;;;;5008562;28;20279;-65
2021/12/02 09:22:00;;;;;;;3.37;1.10;;;6.50;99.90;;;;;;5007480;28;20211;-65
2021/12/02 09:24:27;;;;;;;1.87;1.23;;;6.70;99.90;;;;;;5009382;28;20584;-65
2021/12/02 09:26:56;;;;;;;2.07;1.10;;;6.70;99.90;;;;;;5017591;28;20204;-65
2021/12/02 09:29:23;;;;;;;2.13;1.40;;;6.60;99.90;;;;;;5004773;28;20200;-65
2021/12/02 09:31:51;;;;;;;1.40;0.90;;;6.60;99.90;;;;;;5008944;28;20207;-64
2021/12/02 09:34:18;;;;;;;1.27;1.10;;;6.40;99.90;;;;;;4996516;28;20467;-66
2021/12/02 09:36:46;;;;;;;2.53;1.20;;;6.40;99.90;;;;;;5004485;28;20208;-66
2021/12/02 09:39:14;;;;;;;1.97;1.20;;;6.50;99.90;;;;;;5003136;28;20208;-66
2021/12/02 09:41:41;;;;;;;3.90;1.47;;;6.60;99.90;;;;;;5004684;28;20206;-65
2021/12/02 09:44:08;;;;;;;6.87;2.67;;;6.60;99.90;;;;;;5012493;28;20224;-64
2021/12/02 09:46:37;;;;;;;1.57;0.93;;;6.70;99.90;;;;;;5004211;28;20193;-64
2021/12/02 09:49:06;;;;;;;1.40;1.30;;;6.60;99.90;;;;;;5011274;28;20231;-65
2021/12/02 09:54:25;;;;;;;3.37;1.20;;;6.40;99.90;;;;;;5004638;28;20234;-63
2021/12/02 09:56:55;;;;;;;3.23;1.23;;;6.30;99.90;;;;;;5005363;28;20217;-63
2021/12/02 10:01:58;;;;;;;4.33;1.10;;;6.40;99.90;;;;;;5004653;28;20203;-65
2021/12/02 10:04:27;;;;;;;1.93;1.20;;;6.30;99.90;;;;;;5001019;28;20619;-64
2021/12/02 10:07:17;;;;;;;2.77;1.30;;;6.30;99.90;;;;;;5003255;28;20207;-64
2021/12/02 10:13:32;;;;;;;1.97;1.10;;;6.40;99.90;;;;;;5011905;28;20227;-64
2021/12/02 10:16:11;;;;;;;3.03;1.00;;;6.40;99.90;;;;;;5006921;28;20191;-65
2021/12/02 10:21:28;;;;;;;2.60;1.00;;;6.50;99.90;;;;;;5009030;28;20508;-67
2021/12/02 10:24:02;;;;;;;1.00;0.87;;;6.60;99.90;;;;;;5006979;28;20234;-66
2021/12/02 10:26:34;;;;;;;0.97;0.70;;;6.80;99.90;;;;;;5005677;28;20196;-67
2021/12/02 10:29:07;;;;;;;0.97;0.80;;;6.90;99.90;;;;;;5011674;28;20700;-66
2021/12/02 10:31:34;;;;;;;2.30;0.70;;;6.90;99.90;;;;;;5011096;28;20219;-66
2021/12/02 10:34:04;;;;;;;2.07;0.77;;;6.90;99.90;;;;;;5003169;28;20219;-67
2021/12/02 10:36:32;;;;;;;2.97;1.00;;;6.90;99.90;;;;;;5007015;28;20204;-66
2021/12/02 10:39:20;;;;;;;2.53;0.90;;;6.90;99.90;;;;;;5003422;28;20215;-67
2021/12/02 10:42:01;;;;;;;2.03;0.80;;;7.00;99.90;;;;;;5002992;28;20212;-65
2021/12/02 10:44:34;;;;;;;5.13;1.00;;;7.10;99.90;;;;;;5004921;28;20231;-67
2021/12/02 10:47:06;;;;;;;1.80;1.10;;;7.00;99.90;;;;;;5007438;28;20203;-65
2021/12/02 10:49:42;;;;;;;1.50;0.90;;;7.10;99.90;;;;;;5003132;28;20196;-64
2021/12/02 10:52:14;;;;;;;1.67;0.87;;;7.40;99.90;;;;;;5006735;28;20215;-64
2021/12/02 10:54:44;;;;;;;1.60;1.00;;;7.50;99.90;;;;;;5004928;28;20203;-65
2021/12/02 10:57:13;;;;;;;1.83;0.90;;;7.50;99.90;;;;;;5006458;28;20211;-64
2021/12/02 10:59:45;;;;;;;0.87;0.80;;;7.60;99.90;;;;;;5000865;28;20291;-64
2021/12/02 11:02:28;;;;;;;1.33;0.80;;;7.30;99.90;;;;;;5017945;28;20201;-66
2021/12/02 11:05:11;;;;;;;3.27;0.97;;;7.30;99.90;;;;;;5007363;28;20913;-65
2021/12/02 11:07:40;;;;;;;1.00;0.90;;;7.30;99.90;;;;;;5005046;28;20192;-64
2021/12/02 11:10:10;;;;;;;2.07;0.90;;;7.40;99.90;;;;;;5005853;28;20204;-64
2021/12/02 11:12:41;;;;;;;3.17;1.00;;;7.40;99.90;;;;;;5004882;28;21486;-66
2021/12/02 11:15:30;;;;;;;0.83;0.70;;;7.50;99.90;;;;;;5009359;28;20206;-66
2021/12/02 11:18:09;;;;;;;1.53;0.80;;;7.60;99.90;;;;;;4997087;28;20732;-66
2021/12/02 11:20:37;;;;;;;1.43;0.70;;;7.60;99.90;;;;;;5003601;28;20215;-66
2021/12/02 11:23:06;;;;;;;2.93;0.90;;;7.40;99.90;;;;;;5001243;28;20218;-69
2021/12/02 11:25:37;;;;;;;2.33;0.80;;;7.60;99.90;;;;;;5005943;28;20692;-69
2021/12/02 11:28:08;;;;;;;4.40;0.90;;;7.60;99.90;;;;;;5004166;28;20650;-66
2021/12/02 11:30:37;;;;;;;2.23;1.00;;;7.50;99.90;;;;;;5009332;28;20220;-65
2021/12/02 11:33:35;;;;;;;0.83;0.80;;;7.40;99.90;;;;;;5003860;28;20954;-66
2021/12/02 11:36:04;;;;;;;0.80;0.80;;;7.50;99.90;;;;;;5002167;28;20562;-66
2021/12/02 11:38:32;;;;;;;0.70;0.70;;;7.60;99.90;;;;;;5006039;28;20207;-66
2021/12/02 11:41:02;;;;;;;0.77;0.77;;;7.60;99.90;;;;;;5011261;28;20200;-66
2021/12/02 11:43:32;;;;;;;0.97;0.67;;;7.80;99.90;;;;;;4999474;28;20219;-67
2021/12/02 11:46:01;;;;;;;5.70;2.50;;;7.90;99.90;;;;;;5002716;28;20202;-67
2021/12/02 11:48:39;;;;;;;4.67;1.00;;;8.10;99.90;;;;;;5013099;28;20297;-67
2021/12/02 11:51:09;;;;;;;2.10;1.23;;;8.00;99.90;;;;;;5004302;28;20201;-67
2021/12/02 11:53:36;;;;;;;1.47;0.80;;;8.00;99.90;;;;;;5000932;28;20235;-67
2021/12/02 11:56:22;;;;;;;0.67;0.60;;;8.00;99.90;;;;;;5004159;28;20199;-66
2021/12/02 11:58:50;;;;;;;0.60;0.60;;;7.90;99.90;;;;;;5002584;28;20200;-67
2021/12/02 12:01:26;;;;;;;1.23;0.73;;;7.50;99.90;;;;;;5001398;28;20201;-66
2021/12/02 12:03:56;;;;;;;0.90;0.80;;;7.40;99.90;;;;;;5006243;28;20228;-66
2021/12/02 12:06:30;;;;;;;0.90;0.73;;;7.50;99.90;;;;;;4994853;28;20279;-66
2021/12/02 12:08:57;;;;;;;2.10;0.90;;;7.40;99.90;;;;;;5006875;28;21554;-66
2021/12/02 12:11:33;;;;;;;2.27;1.10;;;7.30;99.90;;;;;;5013270;28;20283;-66
2021/12/02 12:14:09;;;;;;;1.93;1.00;;;7.30;99.90;;;;;;5006343;28;20226;-66
2021/12/02 12:16:42;;;;;;;1.27;1.10;;;7.20;99.90;;;;;;5003858;28;20290;-66
2021/12/02 12:19:21;;;;;;;1.60;1.23;;;7.30;99.90;;;;;;5007370;28;20209;-66
2021/12/02 12:21:56;;;;;;;1.30;1.13;;;7.40;99.90;;;;;;5020486;28;20218;-66
2021/12/02 12:24:42;;;;;;;1.33;1.10;;;7.70;99.90;;;;;;5014689;28;20211;-66
2021/12/02 12:27:14;;;;;;;1.17;1.00;;;7.30;99.90;;;;;;5000680;28;20204;-65
2021/12/02 12:29:41;;;;;;;1.43;1.23;;;6.70;99.90;;;;;;5004427;28;20692;-65
2021/12/02 12:32:13;;;;;;;1.93;1.27;;;6.70;99.90;;;;;;5009537;28;20200;-65
2021/12/02 12:34:51;;;;;;;2.30;1.13;;;6.70;99.90;;;;;;5006139;28;20668;-65
2021/12/02 12:37:31;;;;;;;1.97;1.27;;;6.80;99.90;;;;;;5006769;28;20656;-64
2021/12/02 12:40:12;;;;;;;2.40;1.20;;;6.70;99.90;;;;;;5004889;28;20612;-65
2021/12/02 12:42:50;;;;;;;2.53;1.20;;;6.50;99.90;;;;;;5005206;28;20227;-64
2021/12/02 12:45:29;;;;;;;1.60;1.43;;;6.50;99.90;;;;;;5007189;28;20220;-65
2021/12/02 12:47:59;;;;;;;2.30;1.40;;;6.70;99.90;;;;;;5015065;28;20199;-64
2021/12/02 12:50:32;;;;;;;2.20;1.50;;;6.70;99.90;;;;;;5011556;28;20584;-64
2021/12/02 12:53:20;;;;;;;2.00;1.33;;;6.60;99.90;;;;;;5001820;28;20231;-65
2021/12/02 12:55:54;;;;;;;2.57;1.60;;;6.50;99.90;;;;;;5023302;28;20197;-64
2021/12/02 12:58:29;;;;;;;1.97;1.33;;;6.40;99.90;;;;;;5011776;28;20210;-65
2021/12/02 13:01:03;;;;;;;2.40;1.63;;;6.40;99.90;;;;;;5002842;28;20200;-65
2021/12/02 13:03:44;;;;;;;3.67;1.57;;;6.30;99.90;;;;;;5016013;28;20229;-65
2021/12/02 13:06:24;;;;;;;1.70;1.50;;;6.20;99.90;;;;;;5004037;28;20197;-65
2021/12/02 13:08:56;;;;;;;2.30;1.67;;;6.20;99.90;;;;;;5002981;28;20200;-65
2021/12/02 13:11:29;;;;;;;4.97;1.30;;;6.30;99.90;;;;;;5002630;28;20200;-64
2021/12/02 13:13:58;;;;;;;1.87;1.40;;;6.30;99.90;;;;;;5005605;28;20290;-65
2021/12/02 13:16:24;;;;;;;1.97;1.30;;;6.30;99.90;;;;;;5006505;28;20200;-65
2021/12/02 13:19:13;;;;;;;1.47;1.20;;;6.30;99.90;;;;;;5006657;28;20191;-64
2021/12/02 13:21:42;;;;;;;1.53;1.10;;;6.00;99.90;;;;;;5004639;28;20204;-65
2021/12/02 13:24:34;;;;;;;2.03;1.30;;;6.00;99.90;;;;;;5003795;28;20220;-65
2021/12/02 13:27:08;;;;;;;4.27;1.50;;;5.90;99.90;;;;;;5004249;28;20200;-64
2021/12/02 13:29:36;;;;;;;1.93;1.40;;;5.60;99.90;;;;;;5006269;28;20213;-64
2021/12/02 13:32:08;;;;;;;4.43;1.33;;;5.50;99.90;;;;;;5002896;28;20199;-64
2021/12/02 13:34:35;;;;;;;2.83;1.70;;;5.40;99.90;;;;;;5006744;28;20203;-65
2021/12/02 13:37:10;;;;;;;1.40;1.30;;;5.50;99.90;;;;;;5005986;28;20215;-64
2021/12/02 13:39:42;;;;;;;4.57;1.30;;;5.50;99.90;;;;;;5000135;28;20204;-65
2021/12/02 13:42:14;;;;;;;1.90;1.20;;;5.30;99.90;;;;;;5001470;28;20209;-65